sensor_id;sensor_type;location;lat;lon;timestamp;P1;durP1;ratioP1;P2;durP2;ratioP2
14080;SDS011;7116;52.152;5.392;2022-12-18T00:00:24;37.55;;;18.65;;
14080;SDS011;7116;52.152;5.392;2022-12-18T00:02:49;44.23;;;21.20;;
14080;SDS011;7116;52.152;5.392;2022-12-18T00:05:14;41.73;;;22.17;;
14080;SDS011;7116;52.152;5.392;2022-12-18T00:07:40;36.30;;;20.10;;
14080;SDS011;7116;52.152;5.392;2022-12-18T00:10:05;46.83;;;23.70;;
14080;SDS011;7116;52.152;5.392;2022-12-18T00:12:30;34.72;;;18.38;;
14080;SDS011;7116;52.152;5.392;2022-12-18T00:14:55;35.87;;;18.00;;
14080;SDS011;7116;52.152;5.392;2022-12-18T00:17:21;35.77;;;18.43;;
14080;SDS011;7116;52.152;5.392;2022-12-18T00:19:46;48.53;;;22.93;;
14080;SDS011;7116;52.152;5.392;2022-12-18T00:22:11;31.67;;;15.47;;
14080;SDS011;7116;52.152;5.392;2022-12-18T00:24:36;44.67;;;21.87;;
14080;SDS011;7116;52.152;5.392;2022-12-18T00:27:01;48.27;;;23.07;;
14080;SDS011;7116;52.152;5.392;2022-12-18T00:29:27;49.07;;;23.00;;
14080;SDS011;7116;52.152;5.392;2022-12-18T00:31:52;46.00;;;21.80;;
14080;SDS011;7116;52.152;5.392;2022-12-18T00:34:17;48.30;;;23.50;;
14080;SDS011;7116;52.152;5.392;2022-12-18T00:36:42;48.20;;;24.77;;
14080;SDS011;7116;52.152;5.392;2022-12-18T00:39:09;53.50;;;26.90;;
14080;SDS011;7116;52.152;5.392;2022-12-18T00:41:35;45.22;;;22.23;;
14080;SDS011;7116;52.152;5.392;2022-12-18T00:44:19;44.07;;;23.73;;
14080;SDS011;7116;52.152;5.392;2022-12-18T00:46:44;47.47;;;22.58;;
14080;SDS011;7116;52.152;5.392;2022-12-18T00:49:10;42.40;;;19.67;;
14080;SDS011;7116;52.152;5.392;2022-12-18T00:51:35;40.93;;;19.53;;
14080;SDS011;7116;52.152;5.392;2022-12-18T00:54:00;43.97;;;22.37;;
14080;SDS011;7116;52.152;5.392;2022-12-18T00:56:25;42.53;;;21.17;;
14080;SDS011;7116;52.152;5.392;2022-12-18T00:58:51;44.17;;;21.57;;
14080;SDS011;7116;52.152;5.392;2022-12-18T01:01:16;47.63;;;22.80;;
14080;SDS011;7116;52.152;5.392;2022-12-18T01:03:41;39.50;;;21.55;;
14080;SDS011;7116;52.152;5.392;2022-12-18T01:06:08;50.90;;;22.47;;
14080;SDS011;7116;52.152;5.392;2022-12-18T01:08:33;46.95;;;23.02;;
14080;SDS011;7116;52.152;5.392;2022-12-18T01:10:58;41.47;;;21.07;;
14080;SDS011;7116;52.152;5.392;2022-12-18T01:13:23;43.97;;;22.10;;
14080;SDS011;7116;52.152;5.392;2022-12-18T01:15:49;48.97;;;23.57;;
14080;SDS011;7116;52.152;5.392;2022-12-18T01:18:14;45.50;;;22.87;;
14080;SDS011;7116;52.152;5.392;2022-12-18T01:20:39;36.07;;;18.87;;
14080;SDS011;7116;52.152;5.392;2022-12-18T01:23:07;32.33;;;17.58;;
14080;SDS011;7116;52.152;5.392;2022-12-18T01:25:32;47.30;;;21.83;;
14080;SDS011;7116;52.152;5.392;2022-12-18T01:27:57;49.97;;;23.17;;
14080;SDS011;7116;52.152;5.392;2022-12-18T01:30:22;46.37;;;22.47;;
14080;SDS011;7116;52.152;5.392;2022-12-18T01:32:48;42.43;;;21.03;;
14080;SDS011;7116;52.152;5.392;2022-12-18T01:35:13;52.37;;;21.73;;
14080;SDS011;7116;52.152;5.392;2022-12-18T01:37:38;48.27;;;23.83;;
14080;SDS011;7116;52.152;5.392;2022-12-18T01:40:03;50.47;;;24.10;;
14080;SDS011;7116;52.152;5.392;2022-12-18T01:42:29;43.13;;;20.63;;
14080;SDS011;7116;52.152;5.392;2022-12-18T01:44:59;42.27;;;20.90;;
14080;SDS011;7116;52.152;5.392;2022-12-18T01:50:16;49.42;;;22.67;;
14080;SDS011;7116;52.152;5.392;2022-12-18T01:52:43;46.78;;;21.73;;
14080;SDS011;7116;52.152;5.392;2022-12-18T01:55:10;43.27;;;20.70;;
14080;SDS011;7116;52.152;5.392;2022-12-18T01:57:36;41.55;;;20.25;;
14080;SDS011;7116;52.152;5.392;2022-12-18T02:00:08;39.38;;;19.60;;
14080;SDS011;7116;52.152;5.392;2022-12-18T02:02:35;47.72;;;22.48;;
14080;SDS011;7116;52.152;5.392;2022-12-18T02:05:00;43.07;;;20.33;;
14080;SDS011;7116;52.152;5.392;2022-12-18T02:07:32;41.30;;;21.43;;
14080;SDS011;7116;52.152;5.392;2022-12-18T02:12:33;45.13;;;21.80;;
14080;SDS011;7116;52.152;5.392;2022-12-18T02:15:02;43.97;;;19.53;;
14080;SDS011;7116;52.152;5.392;2022-12-18T02:17:43;45.10;;;22.60;;
14080;SDS011;7116;52.152;5.392;2022-12-18T02:20:14;42.80;;;21.23;;
14080;SDS011;7116;52.152;5.392;2022-12-18T02:22:47;48.13;;;22.42;;
14080;SDS011;7116;52.152;5.392;2022-12-18T02:28:00;43.80;;;21.90;;
14080;SDS011;7116;52.152;5.392;2022-12-18T02:30:26;47.10;;;21.73;;
14080;SDS011;7116;52.152;5.392;2022-12-18T02:32:54;46.13;;;21.05;;
14080;SDS011;7116;52.152;5.392;2022-12-18T02:35:22;40.35;;;20.52;;
14080;SDS011;7116;52.152;5.392;2022-12-18T02:37:48;41.58;;;21.98;;
14080;SDS011;7116;52.152;5.392;2022-12-18T02:40:14;44.67;;;21.63;;
14080;SDS011;7116;52.152;5.392;2022-12-18T02:42:41;41.25;;;21.05;;
14080;SDS011;7116;52.152;5.392;2022-12-18T02:45:06;40.43;;;21.57;;
14080;SDS011;7116;52.152;5.392;2022-12-18T02:47:32;53.63;;;22.10;;
14080;SDS011;7116;52.152;5.392;2022-12-18T03:00:12;36.28;;;20.15;;
14080;SDS011;7116;52.152;5.392;2022-12-18T03:02:41;45.28;;;23.45;;
14080;SDS011;7116;52.152;5.392;2022-12-18T03:05:13;38.03;;;20.40;;
14080;SDS011;7116;52.152;5.392;2022-12-18T03:07:44;45.17;;;23.02;;
14080;SDS011;7116;52.152;5.392;2022-12-18T03:10:13;39.40;;;20.10;;
14080;SDS011;7116;52.152;5.392;2022-12-18T03:12:43;40.15;;;21.58;;
14080;SDS011;7116;52.152;5.392;2022-12-18T03:15:12;43.45;;;22.02;;
14080;SDS011;7116;52.152;5.392;2022-12-18T03:17:40;38.25;;;19.75;;
14080;SDS011;7116;52.152;5.392;2022-12-18T03:20:07;38.83;;;21.27;;
14080;SDS011;7116;52.152;5.392;2022-12-18T03:22:34;42.87;;;20.57;;
14080;SDS011;7116;52.152;5.392;2022-12-18T03:25:01;39.95;;;21.98;;
14080;SDS011;7116;52.152;5.392;2022-12-18T03:27:27;39.10;;;21.85;;
14080;SDS011;7116;52.152;5.392;2022-12-18T03:29:56;39.35;;;18.92;;
14080;SDS011;7116;52.152;5.392;2022-12-18T03:32:32;38.75;;;19.70;;
14080;SDS011;7116;52.152;5.392;2022-12-18T03:34:59;39.38;;;21.88;;
14080;SDS011;7116;52.152;5.392;2022-12-18T03:37:25;39.10;;;21.20;;
14080;SDS011;7116;52.152;5.392;2022-12-18T03:39:51;38.37;;;21.13;;
14080;SDS011;7116;52.152;5.392;2022-12-18T03:44:57;37.70;;;19.83;;
14080;SDS011;7116;52.152;5.392;2022-12-18T03:47:26;43.77;;;20.90;;
14080;SDS011;7116;52.152;5.392;2022-12-18T03:52:23;35.35;;;19.67;;
14080;SDS011;7116;52.152;5.392;2022-12-18T03:54:50;34.78;;;19.70;;
14080;SDS011;7116;52.152;5.392;2022-12-18T03:57:18;34.78;;;18.95;;
14080;SDS011;7116;52.152;5.392;2022-12-18T03:59:44;32.70;;;17.77;;
14080;SDS011;7116;52.152;5.392;2022-12-18T04:02:11;36.53;;;19.73;;
14080;SDS011;7116;52.152;5.392;2022-12-18T04:04:37;36.70;;;19.30;;
14080;SDS011;7116;52.152;5.392;2022-12-18T04:07:03;36.38;;;19.33;;
14080;SDS011;7116;52.152;5.392;2022-12-18T04:09:29;36.17;;;18.40;;
14080;SDS011;7116;52.152;5.392;2022-12-18T04:11:55;31.15;;;17.75;;
14080;SDS011;7116;52.152;5.392;2022-12-18T04:14:20;33.80;;;19.43;;
14080;SDS011;7116;52.152;5.392;2022-12-18T04:16:45;35.03;;;19.83;;
14080;SDS011;7116;52.152;5.392;2022-12-18T04:19:11;32.67;;;18.17;;
14080;SDS011;7116;52.152;5.392;2022-12-18T04:21:36;38.03;;;18.47;;
14080;SDS011;7116;52.152;5.392;2022-12-18T04:24:01;29.60;;;17.07;;
14080;SDS011;7116;52.152;5.392;2022-12-18T04:26:26;26.17;;;15.43;;
14080;SDS011;7116;52.152;5.392;2022-12-18T04:28:51;33.57;;;17.83;;
14080;SDS011;7116;52.152;5.392;2022-12-18T04:31:17;33.93;;;17.87;;
14080;SDS011;7116;52.152;5.392;2022-12-18T04:33:42;33.63;;;17.47;;
14080;SDS011;7116;52.152;5.392;2022-12-18T04:36:07;32.27;;;18.67;;
14080;SDS011;7116;52.152;5.392;2022-12-18T04:38:32;23.63;;;13.63;;
14080;SDS011;7116;52.152;5.392;2022-12-18T04:40:58;31.13;;;17.83;;
14080;SDS011;7116;52.152;5.392;2022-12-18T04:43:23;29.63;;;17.40;;
14080;SDS011;7116;52.152;5.392;2022-12-18T04:45:48;25.13;;;15.60;;
14080;SDS011;7116;52.152;5.392;2022-12-18T04:48:13;25.73;;;15.90;;
14080;SDS011;7116;52.152;5.392;2022-12-18T04:50:39;30.70;;;16.50;;
14080;SDS011;7116;52.152;5.392;2022-12-18T04:53:04;34.37;;;24.67;;
14080;SDS011;7116;52.152;5.392;2022-12-18T04:55:29;31.07;;;17.00;;
14080;SDS011;7116;52.152;5.392;2022-12-18T04:57:54;25.57;;;16.70;;
14080;SDS011;7116;52.152;5.392;2022-12-18T05:00:19;25.70;;;15.97;;
14080;SDS011;7116;52.152;5.392;2022-12-18T05:02:45;25.37;;;15.27;;
14080;SDS011;7116;52.152;5.392;2022-12-18T05:05:10;26.87;;;15.47;;
14080;SDS011;7116;52.152;5.392;2022-12-18T05:07:35;25.20;;;14.63;;
14080;SDS011;7116;52.152;5.392;2022-12-18T05:10:00;32.90;;;15.43;;
14080;SDS011;7116;52.152;5.392;2022-12-18T05:12:26;26.38;;;16.08;;
14080;SDS011;7116;52.152;5.392;2022-12-18T05:14:51;24.70;;;14.27;;
14080;SDS011;7116;52.152;5.392;2022-12-18T05:17:16;24.52;;;15.20;;
14080;SDS011;7116;52.152;5.392;2022-12-18T05:19:42;22.83;;;14.48;;
14080;SDS011;7116;52.152;5.392;2022-12-18T05:22:07;24.10;;;14.37;;
14080;SDS011;7116;52.152;5.392;2022-12-18T05:24:32;21.87;;;14.20;;
14080;SDS011;7116;52.152;5.392;2022-12-18T05:26:58;22.53;;;15.10;;
14080;SDS011;7116;52.152;5.392;2022-12-18T05:29:23;21.67;;;14.23;;
14080;SDS011;7116;52.152;5.392;2022-12-18T05:31:48;23.00;;;13.43;;
14080;SDS011;7116;52.152;5.392;2022-12-18T05:34:13;22.03;;;14.07;;
14080;SDS011;7116;52.152;5.392;2022-12-18T05:36:38;13.80;;;9.20;;
14080;SDS011;7116;52.152;5.392;2022-12-18T05:39:04;20.77;;;13.50;;
14080;SDS011;7116;52.152;5.392;2022-12-18T05:41:29;21.90;;;13.30;;
14080;SDS011;7116;52.152;5.392;2022-12-18T05:43:54;21.97;;;12.97;;
14080;SDS011;7116;52.152;5.392;2022-12-18T05:46:20;20.83;;;13.03;;
14080;SDS011;7116;52.152;5.392;2022-12-18T05:48:45;19.98;;;13.07;;
14080;SDS011;7116;52.152;5.392;2022-12-18T05:51:12;18.83;;;12.15;;
14080;SDS011;7116;52.152;5.392;2022-12-18T05:53:39;23.60;;;13.98;;
14080;SDS011;7116;52.152;5.392;2022-12-18T05:56:05;24.30;;;14.47;;
14080;SDS011;7116;52.152;5.392;2022-12-18T05:58:31;20.27;;;13.13;;
14080;SDS011;7116;52.152;5.392;2022-12-18T06:00:56;25.92;;;15.18;;
14080;SDS011;7116;52.152;5.392;2022-12-18T06:03:22;23.27;;;13.03;;
14080;SDS011;7116;52.152;5.392;2022-12-18T06:05:47;19.27;;;12.70;;
14080;SDS011;7116;52.152;5.392;2022-12-18T06:08:12;21.03;;;13.40;;
14080;SDS011;7116;52.152;5.392;2022-12-18T06:10:38;19.17;;;12.77;;
14080;SDS011;7116;52.152;5.392;2022-12-18T06:13:03;22.67;;;13.20;;
14080;SDS011;7116;52.152;5.392;2022-12-18T06:15:28;22.37;;;12.17;;
14080;SDS011;7116;52.152;5.392;2022-12-18T06:17:54;21.03;;;12.10;;
14080;SDS011;7116;52.152;5.392;2022-12-18T06:20:19;21.57;;;14.37;;
14080;SDS011;7116;52.152;5.392;2022-12-18T06:22:44;21.70;;;13.13;;
14080;SDS011;7116;52.152;5.392;2022-12-18T06:25:10;21.80;;;13.20;;
14080;SDS011;7116;52.152;5.392;2022-12-18T06:27:35;21.07;;;13.67;;
14080;SDS011;7116;52.152;5.392;2022-12-18T06:30:00;26.80;;;15.03;;
14080;SDS011;7116;52.152;5.392;2022-12-18T06:32:26;23.83;;;14.13;;
14080;SDS011;7116;52.152;5.392;2022-12-18T06:34:51;19.20;;;11.47;;
14080;SDS011;7116;52.152;5.392;2022-12-18T06:37:16;22.23;;;13.15;;
14080;SDS011;7116;52.152;5.392;2022-12-18T06:39:41;22.97;;;13.00;;
14080;SDS011;7116;52.152;5.392;2022-12-18T06:42:06;20.03;;;11.87;;
14080;SDS011;7116;52.152;5.392;2022-12-18T06:44:32;23.10;;;13.63;;
14080;SDS011;7116;52.152;5.392;2022-12-18T06:46:57;20.63;;;12.80;;
14080;SDS011;7116;52.152;5.392;2022-12-18T06:49:22;20.17;;;13.07;;
14080;SDS011;7116;52.152;5.392;2022-12-18T06:51:47;18.07;;;12.03;;
14080;SDS011;7116;52.152;5.392;2022-12-18T06:54:12;21.30;;;12.90;;
14080;SDS011;7116;52.152;5.392;2022-12-18T06:56:38;18.97;;;12.53;;
14080;SDS011;7116;52.152;5.392;2022-12-18T06:59:03;21.57;;;11.90;;
14080;SDS011;7116;52.152;5.392;2022-12-18T07:01:28;28.93;;;14.47;;
14080;SDS011;7116;52.152;5.392;2022-12-18T07:03:54;19.10;;;12.03;;
14080;SDS011;7116;52.152;5.392;2022-12-18T07:06:21;22.08;;;12.90;;
14080;SDS011;7116;52.152;5.392;2022-12-18T07:08:46;21.88;;;13.60;;
14080;SDS011;7116;52.152;5.392;2022-12-18T07:11:12;21.45;;;12.45;;
14080;SDS011;7116;52.152;5.392;2022-12-18T07:13:37;19.93;;;13.00;;
14080;SDS011;7116;52.152;5.392;2022-12-18T07:16:03;25.27;;;14.27;;
14080;SDS011;7116;52.152;5.392;2022-12-18T07:18:29;20.63;;;13.48;;
14080;SDS011;7116;52.152;5.392;2022-12-18T07:20:54;21.67;;;13.70;;
14080;SDS011;7116;52.152;5.392;2022-12-18T07:23:19;20.93;;;13.00;;
14080;SDS011;7116;52.152;5.392;2022-12-18T07:25:44;20.63;;;13.70;;
14080;SDS011;7116;52.152;5.392;2022-12-18T07:28:09;20.10;;;14.30;;
14080;SDS011;7116;52.152;5.392;2022-12-18T07:30:36;24.30;;;14.20;;
14080;SDS011;7116;52.152;5.392;2022-12-18T07:33:02;23.77;;;14.02;;
14080;SDS011;7116;52.152;5.392;2022-12-18T07:35:27;16.33;;;10.90;;
14080;SDS011;7116;52.152;5.392;2022-12-18T07:37:52;21.37;;;12.97;;
14080;SDS011;7116;52.152;5.392;2022-12-18T07:40:17;22.90;;;12.37;;
14080;SDS011;7116;52.152;5.392;2022-12-18T07:42:43;19.83;;;13.00;;
14080;SDS011;7116;52.152;5.392;2022-12-18T07:45:08;23.17;;;13.43;;
14080;SDS011;7116;52.152;5.392;2022-12-18T07:47:34;19.27;;;13.47;;
14080;SDS011;7116;52.152;5.392;2022-12-18T07:50:00;15.27;;;9.70;;
14080;SDS011;7116;52.152;5.392;2022-12-18T07:52:25;18.67;;;12.13;;
14080;SDS011;7116;52.152;5.392;2022-12-18T07:54:50;21.43;;;13.63;;
14080;SDS011;7116;52.152;5.392;2022-12-18T07:57:16;21.20;;;13.00;;
14080;SDS011;7116;52.152;5.392;2022-12-18T07:59:42;19.58;;;13.88;;
14080;SDS011;7116;52.152;5.392;2022-12-18T08:02:07;22.53;;;11.53;;
14080;SDS011;7116;52.152;5.392;2022-12-18T08:04:32;10.37;;;7.40;;
14080;SDS011;7116;52.152;5.392;2022-12-18T08:06:57;19.50;;;11.97;;
14080;SDS011;7116;52.152;5.392;2022-12-18T08:09:23;20.77;;;14.23;;
14080;SDS011;7116;52.152;5.392;2022-12-18T08:11:48;20.23;;;13.20;;
14080;SDS011;7116;52.152;5.392;2022-12-18T08:14:13;20.53;;;11.53;;
14080;SDS011;7116;52.152;5.392;2022-12-18T08:16:39;20.20;;;12.13;;
14080;SDS011;7116;52.152;5.392;2022-12-18T08:19:04;17.77;;;12.77;;
14080;SDS011;7116;52.152;5.392;2022-12-18T08:21:30;21.33;;;12.90;;
14080;SDS011;7116;52.152;5.392;2022-12-18T08:23:57;17.08;;;10.57;;
14080;SDS011;7116;52.152;5.392;2022-12-18T08:26:23;17.85;;;11.80;;
14080;SDS011;7116;52.152;5.392;2022-12-18T08:28:49;19.98;;;12.85;;
14080;SDS011;7116;52.152;5.392;2022-12-18T08:31:14;20.38;;;11.30;;
14080;SDS011;7116;52.152;5.392;2022-12-18T08:33:40;20.10;;;11.93;;
14080;SDS011;7116;52.152;5.392;2022-12-18T08:36:06;20.03;;;13.37;;
14080;SDS011;7116;52.152;5.392;2022-12-18T08:38:32;15.60;;;9.98;;
14080;SDS011;7116;52.152;5.392;2022-12-18T08:41:00;21.30;;;13.90;;
14080;SDS011;7116;52.152;5.392;2022-12-18T08:43:26;20.27;;;12.68;;
14080;SDS011;7116;52.152;5.392;2022-12-18T08:46:10;20.58;;;11.60;;
14080;SDS011;7116;52.152;5.392;2022-12-18T08:48:36;19.73;;;12.33;;
14080;SDS011;7116;52.152;5.392;2022-12-18T08:51:01;19.10;;;12.63;;
14080;SDS011;7116;52.152;5.392;2022-12-18T08:53:26;18.57;;;12.53;;
14080;SDS011;7116;52.152;5.392;2022-12-18T08:55:51;18.50;;;11.18;;
14080;SDS011;7116;52.152;5.392;2022-12-18T08:58:17;17.77;;;10.85;;
14080;SDS011;7116;52.152;5.392;2022-12-18T09:00:42;18.20;;;10.83;;
14080;SDS011;7116;52.152;5.392;2022-12-18T09:03:12;21.50;;;13.60;;
14080;SDS011;7116;52.152;5.392;2022-12-18T09:05:37;21.95;;;11.80;;
14080;SDS011;7116;52.152;5.392;2022-12-18T09:08:02;20.13;;;13.07;;
14080;SDS011;7116;52.152;5.392;2022-12-18T09:10:27;20.83;;;12.40;;
14080;SDS011;7116;52.152;5.392;2022-12-18T09:12:53;18.40;;;12.13;;
14080;SDS011;7116;52.152;5.392;2022-12-18T09:15:18;17.83;;;10.70;;
14080;SDS011;7116;52.152;5.392;2022-12-18T09:17:43;17.53;;;11.43;;
14080;SDS011;7116;52.152;5.392;2022-12-18T09:20:08;17.10;;;11.67;;
14080;SDS011;7116;52.152;5.392;2022-12-18T09:22:34;16.50;;;10.80;;
14080;SDS011;7116;52.152;5.392;2022-12-18T09:24:59;20.67;;;11.37;;
14080;SDS011;7116;52.152;5.392;2022-12-18T09:27:24;16.03;;;11.90;;
14080;SDS011;7116;52.152;5.392;2022-12-18T09:29:49;20.57;;;13.97;;
14080;SDS011;7116;52.152;5.392;2022-12-18T09:32:15;17.53;;;11.90;;
14080;SDS011;7116;52.152;5.392;2022-12-18T09:34:40;19.77;;;13.50;;
14080;SDS011;7116;52.152;5.392;2022-12-18T09:37:05;15.83;;;11.00;;
14080;SDS011;7116;52.152;5.392;2022-12-18T09:39:30;16.13;;;12.07;;
14080;SDS011;7116;52.152;5.392;2022-12-18T09:41:56;16.90;;;10.87;;
14080;SDS011;7116;52.152;5.392;2022-12-18T09:44:23;19.30;;;10.80;;
14080;SDS011;7116;52.152;5.392;2022-12-18T09:47:10;21.15;;;12.10;;
14080;SDS011;7116;52.152;5.392;2022-12-18T09:49:38;22.83;;;11.98;;
14080;SDS011;7116;52.152;5.392;2022-12-18T09:52:09;14.73;;;10.73;;
14080;SDS011;7116;52.152;5.392;2022-12-18T09:54:39;18.63;;;11.70;;
14080;SDS011;7116;52.152;5.392;2022-12-18T09:57:05;18.55;;;10.55;;
14080;SDS011;7116;52.152;5.392;2022-12-18T10:01:58;17.83;;;11.23;;
14080;SDS011;7116;52.152;5.392;2022-12-18T10:04:24;17.33;;;11.53;;
14080;SDS011;7116;52.152;5.392;2022-12-18T10:09:19;17.47;;;11.60;;
14080;SDS011;7116;52.152;5.392;2022-12-18T10:12:08;17.17;;;11.57;;
14080;SDS011;7116;52.152;5.392;2022-12-18T10:15:23;14.52;;;10.45;;
14080;SDS011;7116;52.152;5.392;2022-12-18T10:20:13;20.23;;;11.05;;
14080;SDS011;7116;52.152;5.392;2022-12-18T10:27:47;13.85;;;8.63;;
14080;SDS011;7116;52.152;5.392;2022-12-18T10:30:13;18.27;;;10.93;;
14080;SDS011;7116;52.152;5.392;2022-12-18T10:32:42;16.17;;;10.27;;
14080;SDS011;7116;52.152;5.392;2022-12-18T10:35:07;16.48;;;9.30;;
14080;SDS011;7116;52.152;5.392;2022-12-18T10:37:36;15.65;;;9.95;;
14080;SDS011;7116;52.152;5.392;2022-12-18T10:40:21;16.92;;;10.27;;
14080;SDS011;7116;52.152;5.392;2022-12-18T10:42:49;17.70;;;9.93;;
14080;SDS011;7116;52.152;5.392;2022-12-18T10:45:27;16.67;;;11.15;;
14080;SDS011;7116;52.152;5.392;2022-12-18T10:47:52;16.63;;;11.00;;
14080;SDS011;7116;52.152;5.392;2022-12-18T10:50:18;18.13;;;11.80;;
14080;SDS011;7116;52.152;5.392;2022-12-18T10:52:44;16.45;;;10.27;;
14080;SDS011;7116;52.152;5.392;2022-12-18T10:55:17;17.27;;;9.95;;
14080;SDS011;7116;52.152;5.392;2022-12-18T10:57:43;16.57;;;9.63;;
14080;SDS011;7116;52.152;5.392;2022-12-18T11:02:49;16.83;;;10.77;;
14080;SDS011;7116;52.152;5.392;2022-12-18T11:07:49;14.77;;;9.43;;
14080;SDS011;7116;52.152;5.392;2022-12-18T11:10:20;12.40;;;9.02;;
14080;SDS011;7116;52.152;5.392;2022-12-18T11:12:46;14.15;;;9.80;;
14080;SDS011;7116;52.152;5.392;2022-12-18T11:15:16;15.20;;;9.93;;
14080;SDS011;7116;52.152;5.392;2022-12-18T11:17:43;14.38;;;9.27;;
14080;SDS011;7116;52.152;5.392;2022-12-18T11:20:20;15.50;;;9.18;;
14080;SDS011;7116;52.152;5.392;2022-12-18T11:22:56;16.73;;;9.73;;
14080;SDS011;7116;52.152;5.392;2022-12-18T11:25:22;15.90;;;10.33;;
14080;SDS011;7116;52.152;5.392;2022-12-18T11:27:58;17.10;;;10.18;;
14080;SDS011;7116;52.152;5.392;2022-12-18T11:30:25;14.48;;;9.25;;
14080;SDS011;7116;52.152;5.392;2022-12-18T11:32:53;13.23;;;9.23;;
14080;SDS011;7116;52.152;5.392;2022-12-18T11:35:38;14.48;;;9.75;;
14080;SDS011;7116;52.152;5.392;2022-12-18T11:38:24;13.55;;;8.35;;
14080;SDS011;7116;52.152;5.392;2022-12-18T11:40:55;14.20;;;9.02;;
14080;SDS011;7116;52.152;5.392;2022-12-18T11:43:28;11.38;;;6.45;;
14080;SDS011;7116;52.152;5.392;2022-12-18T11:45:59;14.50;;;9.52;;
14080;SDS011;7116;52.152;5.392;2022-12-18T11:48:27;13.35;;;7.60;;
14080;SDS011;7116;52.152;5.392;2022-12-18T11:50:54;17.85;;;11.07;;
14080;SDS011;7116;52.152;5.392;2022-12-18T11:53:20;13.88;;;9.95;;
14080;SDS011;7116;52.152;5.392;2022-12-18T12:01:01;14.60;;;9.50;;
14080;SDS011;7116;52.152;5.392;2022-12-18T12:03:39;14.43;;;9.02;;
14080;SDS011;7116;52.152;5.392;2022-12-18T12:06:17;19.42;;;10.73;;
14080;SDS011;7116;52.152;5.392;2022-12-18T12:08:49;17.13;;;10.50;;
14080;SDS011;7116;52.152;5.392;2022-12-18T12:13:57;17.27;;;10.80;;
14080;SDS011;7116;52.152;5.392;2022-12-18T12:16:25;15.05;;;10.23;;
14080;SDS011;7116;52.152;5.392;2022-12-18T12:21:41;16.23;;;10.60;;
14080;SDS011;7116;52.152;5.392;2022-12-18T12:29:04;12.13;;;7.82;;
14080;SDS011;7116;52.152;5.392;2022-12-18T12:31:33;15.25;;;9.70;;
14080;SDS011;7116;52.152;5.392;2022-12-18T12:34:07;14.57;;;10.57;;
14080;SDS011;7116;52.152;5.392;2022-12-18T12:39:03;17.47;;;10.90;;
14080;SDS011;7116;52.152;5.392;2022-12-18T12:41:31;17.80;;;10.32;;
14080;SDS011;7116;52.152;5.392;2022-12-18T12:44:21;16.02;;;10.27;;
14080;SDS011;7116;52.152;5.392;2022-12-18T12:46:47;16.05;;;10.32;;
14080;SDS011;7116;52.152;5.392;2022-12-18T12:49:14;16.92;;;10.02;;
14080;SDS011;7116;52.152;5.392;2022-12-18T12:51:41;17.83;;;9.70;;
14080;SDS011;7116;52.152;5.392;2022-12-18T12:54:18;14.65;;;10.63;;
14080;SDS011;7116;52.152;5.392;2022-12-18T12:56:52;18.70;;;10.50;;
14080;SDS011;7116;52.152;5.392;2022-12-18T12:59:25;15.32;;;10.40;;
14080;SDS011;7116;52.152;5.392;2022-12-18T13:09:31;16.92;;;10.73;;
14080;SDS011;7116;52.152;5.392;2022-12-18T13:12:01;15.40;;;9.77;;
14080;SDS011;7116;52.152;5.392;2022-12-18T13:14:45;18.70;;;9.32;;
14080;SDS011;7116;52.152;5.392;2022-12-18T13:19:51;15.98;;;10.50;;
14080;SDS011;7116;52.152;5.392;2022-12-18T13:22:21;15.23;;;9.40;;
14080;SDS011;7116;52.152;5.392;2022-12-18T13:24:47;16.90;;;11.73;;
14080;SDS011;7116;52.152;5.392;2022-12-18T13:29:56;18.27;;;8.60;;
14080;SDS011;7116;52.152;5.392;2022-12-18T13:32:22;15.47;;;9.40;;
14080;SDS011;7116;52.152;5.392;2022-12-18T13:34:48;17.83;;;10.93;;
14080;SDS011;7116;52.152;5.392;2022-12-18T13:39:56;16.77;;;11.25;;
14080;SDS011;7116;52.152;5.392;2022-12-18T13:42:37;14.70;;;9.20;;
14080;SDS011;7116;52.152;5.392;2022-12-18T13:45:38;17.55;;;10.30;;
14080;SDS011;7116;52.152;5.392;2022-12-18T13:48:03;19.90;;;11.45;;
14080;SDS011;7116;52.152;5.392;2022-12-18T13:50:29;14.37;;;8.43;;
14080;SDS011;7116;52.152;5.392;2022-12-18T13:52:54;16.47;;;10.13;;
14080;SDS011;7116;52.152;5.392;2022-12-18T13:55:19;17.30;;;10.97;;
14080;SDS011;7116;52.152;5.392;2022-12-18T13:57:45;12.65;;;8.20;;
14080;SDS011;7116;52.152;5.392;2022-12-18T14:00:25;17.63;;;11.60;;
14080;SDS011;7116;52.152;5.392;2022-12-18T14:02:51;19.13;;;11.45;;
14080;SDS011;7116;52.152;5.392;2022-12-18T14:05:22;18.77;;;10.73;;
14080;SDS011;7116;52.152;5.392;2022-12-18T14:07:48;17.48;;;10.52;;
14080;SDS011;7116;52.152;5.392;2022-12-18T14:10:14;18.83;;;12.50;;
14080;SDS011;7116;52.152;5.392;2022-12-18T14:12:40;16.67;;;11.15;;
14080;SDS011;7116;52.152;5.392;2022-12-18T14:17:54;19.85;;;11.15;;
14080;SDS011;7116;52.152;5.392;2022-12-18T14:20:20;18.42;;;11.82;;
14080;SDS011;7116;52.152;5.392;2022-12-18T14:22:45;16.92;;;10.57;;
14080;SDS011;7116;52.152;5.392;2022-12-18T14:25:19;18.73;;;10.23;;
14080;SDS011;7116;52.152;5.392;2022-12-18T14:27:50;17.65;;;11.13;;
14080;SDS011;7116;52.152;5.392;2022-12-18T14:30:23;19.90;;;12.57;;
14080;SDS011;7116;52.152;5.392;2022-12-18T14:35:33;18.20;;;11.05;;
14080;SDS011;7116;52.152;5.392;2022-12-18T14:40:43;16.67;;;10.15;;
14080;SDS011;7116;52.152;5.392;2022-12-18T14:43:09;18.48;;;11.25;;
14080;SDS011;7116;52.152;5.392;2022-12-18T14:48:07;17.85;;;11.02;;
14080;SDS011;7116;52.152;5.392;2022-12-18T14:50:33;22.63;;;12.73;;
14080;SDS011;7116;52.152;5.392;2022-12-18T14:52:58;21.30;;;14.53;;
14080;SDS011;7116;52.152;5.392;2022-12-18T14:55:23;17.97;;;10.77;;
14080;SDS011;7116;52.152;5.392;2022-12-18T14:57:52;22.33;;;13.37;;
14080;SDS011;7116;52.152;5.392;2022-12-18T15:00:20;17.75;;;11.65;;
14080;SDS011;7116;52.152;5.392;2022-12-18T15:02:46;18.25;;;11.20;;
14080;SDS011;7116;52.152;5.392;2022-12-18T15:07:42;17.60;;;11.35;;
14080;SDS011;7116;52.152;5.392;2022-12-18T15:12:36;22.25;;;12.52;;
14080;SDS011;7116;52.152;5.392;2022-12-18T15:15:03;19.05;;;12.48;;
14080;SDS011;7116;52.152;5.392;2022-12-18T15:17:28;20.05;;;11.30;;
14080;SDS011;7116;52.152;5.392;2022-12-18T15:19:58;18.47;;;10.57;;
14080;SDS011;7116;52.152;5.392;2022-12-18T15:22:28;20.33;;;13.32;;
14080;SDS011;7116;52.152;5.392;2022-12-18T15:24:55;20.05;;;12.77;;
14080;SDS011;7116;52.152;5.392;2022-12-18T15:27:25;20.90;;;12.52;;
14080;SDS011;7116;52.152;5.392;2022-12-18T15:32:48;21.23;;;13.25;;
14080;SDS011;7116;52.152;5.392;2022-12-18T15:37:42;19.83;;;12.20;;
14080;SDS011;7116;52.152;5.392;2022-12-18T15:40:08;23.50;;;13.30;;
14080;SDS011;7116;52.152;5.392;2022-12-18T15:42:36;20.85;;;12.70;;
14080;SDS011;7116;52.152;5.392;2022-12-18T15:45:20;19.95;;;12.70;;
14080;SDS011;7116;52.152;5.392;2022-12-18T15:47:45;16.43;;;10.03;;
14080;SDS011;7116;52.152;5.392;2022-12-18T15:50:10;22.70;;;12.77;;
14080;SDS011;7116;52.152;5.392;2022-12-18T15:52:42;18.20;;;11.33;;
14080;SDS011;7116;52.152;5.392;2022-12-18T15:55:18;22.65;;;11.82;;
14080;SDS011;7116;52.152;5.392;2022-12-18T15:58:02;18.73;;;12.50;;
14080;SDS011;7116;52.152;5.392;2022-12-18T16:00:27;19.83;;;12.93;;
14080;SDS011;7116;52.152;5.392;2022-12-18T16:02:52;22.53;;;13.37;;
14080;SDS011;7116;52.152;5.392;2022-12-18T16:05:18;20.63;;;12.70;;
14080;SDS011;7116;52.152;5.392;2022-12-18T16:07:44;25.13;;;13.60;;
14080;SDS011;7116;52.152;5.392;2022-12-18T16:10:09;34.20;;;18.80;;
14080;SDS011;7116;52.152;5.392;2022-12-18T16:12:34;29.83;;;16.67;;